createdAt,value
2023-04-11T00:00:35.090Z,98075.94
2023-04-11T00:03:02.941Z,98076.66
2023-04-11T00:05:34.336Z,98058.75
2023-04-11T00:08:02.039Z,98052.09
2023-04-11T00:10:29.397Z,98058.94
2023-04-11T00:12:57.752Z,98053.84
2023-04-11T00:15:25.380Z,98055.06
2023-04-11T00:17:54.272Z,98057.34
2023-04-11T00:20:22.068Z,98058.00
2023-04-11T00:22:49.845Z,98063.88
2023-04-11T00:25:17.926Z,98048.34
2023-04-11T00:27:45.685Z,98051.69
2023-04-11T00:30:14.877Z,98037.66
2023-04-11T00:32:42.283Z,98043.72
2023-04-11T00:35:09.829Z,98061.72
2023-04-11T00:37:37.403Z,98039.25
2023-04-11T00:40:06.935Z,98041.41
2023-04-11T00:42:34.517Z,98041.94
2023-04-11T00:45:01.844Z,98047.50
2023-04-11T00:47:29.768Z,98046.16
2023-04-11T00:49:56.896Z,98034.28
2023-04-11T00:52:24.739Z,98037.16
2023-04-11T00:54:52.298Z,98030.22
2023-04-11T00:57:20.033Z,98027.28
2023-04-11T00:59:51.425Z,98023.25
2023-04-11T01:02:19.654Z,98028.59
2023-04-11T01:04:47.100Z,98026.91
2023-04-11T01:07:15.615Z,98037.06
2023-04-11T01:09:43.256Z,98027.06
2023-04-11T01:12:12.018Z,98024.00
2023-04-11T01:14:40.096Z,98018.84
2023-04-11T01:17:08.417Z,98024.25
2023-04-11T01:19:35.600Z,98034.00
2023-04-11T01:22:03.548Z,98022.53
2023-04-11T01:24:31.750Z,98014.09
2023-04-11T01:26:59.384Z,98015.53
2023-04-11T01:29:26.515Z,98008.56
2023-04-11T01:31:53.639Z,98001.34
2023-04-11T01:34:23.302Z,98030.78
2023-04-11T01:36:50.574Z,98009.78
2023-04-11T01:39:17.734Z,98006.09
2023-04-11T01:41:46.445Z,98008.94
2023-04-11T01:44:13.948Z,98004.59
2023-04-11T01:46:41.737Z,98006.97
2023-04-11T01:49:08.958Z,98016.28
2023-04-11T01:51:36.618Z,98002.25
2023-04-11T01:54:03.862Z,98027.16
2023-04-11T01:56:31.809Z,98001.91
2023-04-11T01:58:59.451Z,98022.75
2023-04-11T02:01:27.032Z,97996.06
2023-04-11T02:03:54.475Z,97980.66
2023-04-11T02:06:21.712Z,98004.59
2023-04-11T02:08:48.845Z,98017.31
2023-04-11T02:11:15.990Z,98009.38
2023-04-11T02:13:45.156Z,98020.69
2023-04-11T02:16:18.492Z,98007.53
2023-04-11T02:18:46.567Z,98001.91
2023-04-11T02:21:13.834Z,98012.47
2023-04-11T02:23:41.140Z,97997.56
2023-04-11T02:26:08.284Z,97989.28
2023-04-11T02:28:36.966Z,97990.50
2023-04-11T02:31:04.459Z,98014.03
2023-04-11T02:33:32.663Z,98014.19
2023-04-11T02:35:59.831Z,98000.34
2023-04-11T02:38:27.931Z,97991.72
2023-04-11T02:40:55.025Z,98002.69
2023-04-11T02:43:22.246Z,97989.75
2023-04-11T02:45:49.828Z,98002.28
2023-04-11T02:48:18.285Z,97998.91
2023-04-11T02:50:46.426Z,97981.66
2023-04-11T02:53:13.642Z,97995.63
2023-04-11T02:55:47.078Z,97991.78
2023-04-11T02:58:18.256Z,97992.44
2023-04-11T03:00:49.795Z,97980.94
2023-04-11T03:03:17.362Z,97979.22
2023-04-11T03:05:47.480Z,97967.63
2023-04-11T03:08:18.583Z,97959.13
2023-04-11T03:10:51.476Z,97977.09
2023-04-11T03:13:19.708Z,97963.38
2023-04-11T03:15:46.809Z,97975.41
2023-04-11T03:18:14.808Z,97968.16
2023-04-11T03:20:45.161Z,97966.25
2023-04-11T03:23:14.592Z,97973.66
2023-04-11T03:25:41.918Z,97964.88
2023-04-11T03:28:09.156Z,97977.50
2023-04-11T03:30:37.777Z,97967.69
2023-04-11T03:33:04.941Z,97968.78
2023-04-11T03:35:32.223Z,97960.31
2023-04-11T03:38:01.290Z,97970.44
2023-04-11T03:40:28.686Z,97982.03
2023-04-11T03:43:05.422Z,97959.78
2023-04-11T03:45:35.354Z,97983.56
2023-04-11T03:48:05.856Z,97966.34
2023-04-11T03:50:46.392Z,97959.50
2023-04-11T03:53:15.647Z,97969.16
2023-04-11T03:55:45.315Z,97968.47
2023-04-11T03:58:16.443Z,97968.47
2023-04-11T04:00:43.907Z,97978.31
2023-04-11T04:03:11.239Z,97979.69
2023-04-11T04:05:41.607Z,97968.44
2023-04-11T04:08:09.736Z,97966.94
2023-04-11T04:10:47.346Z,97978.53
2023-04-11T04:13:15.166Z,97984.22
2023-04-11T04:15:51.809Z,97978.75
2023-04-11T04:18:23.690Z,97990.28
2023-04-11T04:20:51.439Z,98000.19
2023-04-11T04:23:20.052Z,97975.50
2023-04-11T04:26:04.533Z,97977.28
2023-04-11T04:28:33.461Z,97984.25
2023-04-11T04:31:04.323Z,97976.13
2023-04-11T04:33:38.512Z,97988.88
2023-04-11T04:36:12.637Z,97987.09
2023-04-11T04:38:42.401Z,97977.53
2023-04-11T04:41:22.362Z,97992.84
2023-04-11T04:43:58.552Z,97982.81
2023-04-11T04:46:37.520Z,97985.25
2023-04-11T04:49:07.229Z,97975.69
2023-04-11T04:51:36.980Z,97989.06
2023-04-11T04:54:05.251Z,97987.75
2023-04-11T04:56:32.775Z,98000.75
2023-04-11T04:59:00.226Z,97992.91
2023-04-11T05:01:29.571Z,98003.53
2023-04-11T05:04:00.208Z,97995.34
2023-04-11T05:06:47.308Z,98008.31
2023-04-11T05:09:16.527Z,97986.09
2023-04-11T05:11:44.359Z,97998.72
2023-04-11T05:14:11.544Z,97992.88
2023-04-11T05:16:44.035Z,97994.59
2023-04-11T05:19:11.333Z,97986.91
2023-04-11T05:21:42.395Z,97980.16
2023-04-11T05:24:09.576Z,97984.28
2023-04-11T05:26:37.606Z,97981.69
2023-04-11T05:29:06.846Z,97981.94
2023-04-11T05:31:34.251Z,97983.28
2023-04-11T05:34:02.453Z,97983.50
2023-04-11T05:36:29.856Z,97983.72
2023-04-11T05:38:56.927Z,97978.53
2023-04-11T05:41:24.775Z,97961.63
2023-04-11T05:43:52.024Z,97964.09
2023-04-11T05:46:19.869Z,97972.81
2023-04-11T05:48:47.576Z,97969.59
2023-04-11T05:51:14.630Z,97967.03
2023-04-11T05:53:41.757Z,97962.47
2023-04-11T05:56:09.215Z,97973.94
2023-04-11T05:58:39.846Z,97965.16
2023-04-11T06:01:07.678Z,97959.03
2023-04-11T06:03:34.990Z,97947.13
2023-04-11T06:06:02.252Z,97950.38
2023-04-11T06:08:29.479Z,97960.91
2023-04-11T06:10:56.580Z,97956.16
2023-04-11T06:13:23.730Z,97958.31
2023-04-11T06:15:51.034Z,97945.44
2023-04-11T06:18:18.156Z,97934.44
2023-04-11T06:20:46.608Z,97929.88
2023-04-11T06:23:13.977Z,97937.84
2023-04-11T06:25:41.554Z,97938.66
2023-04-11T06:28:08.590Z,97937.97
2023-04-11T06:30:36.772Z,97955.91
2023-04-11T06:33:03.942Z,97944.59
2023-04-11T06:35:31.631Z,97933.91
2023-04-11T06:37:58.874Z,97944.28
2023-04-11T06:40:26.257Z,97930.25
2023-04-11T06:42:53.286Z,97939.31
2023-04-11T06:45:20.611Z,97940.81
2023-04-11T06:47:47.811Z,97942.84
2023-04-11T06:50:15.206Z,97936.34
2023-04-11T06:52:42.327Z,97945.03
2023-04-11T06:55:10.423Z,97959.25
2023-04-11T06:57:37.534Z,97944.66
2023-04-11T07:00:07.817Z,97981.34
2023-04-11T07:02:39.718Z,97960.69
2023-04-11T07:05:09.529Z,97961.00
2023-04-11T07:07:36.993Z,97973.84
2023-04-11T07:10:05.434Z,97963.31
2023-04-11T07:12:32.508Z,97964.47
2023-04-11T07:14:59.701Z,97961.75
2023-04-11T07:17:26.837Z,97964.72
2023-04-11T07:19:54.001Z,97957.22
2023-04-11T07:22:21.161Z,97943.28
2023-04-11T07:24:52.353Z,97946.84
2023-04-11T07:27:19.801Z,97943.81
2023-04-11T07:29:46.981Z,97938.28
2023-04-11T07:32:14.072Z,97951.94
2023-04-11T07:34:41.187Z,97952.09
2023-04-11T07:37:08.481Z,97959.56
2023-04-11T07:39:35.677Z,97937.56
2023-04-11T07:42:02.961Z,97954.44
2023-04-11T07:44:30.102Z,97954.94
2023-04-11T07:46:57.305Z,97941.25
2023-04-11T07:49:24.441Z,97946.09
2023-04-11T07:51:51.536Z,97955.34
2023-04-11T07:54:18.631Z,97943.59
2023-04-11T07:56:45.835Z,97967.78
2023-04-11T07:59:16.227Z,97958.69
2023-04-11T08:01:43.691Z,97955.44
2023-04-11T08:04:11.700Z,97931.78
2023-04-11T08:06:38.992Z,97939.69
2023-04-11T08:09:06.221Z,97936.00
2023-04-11T08:11:33.410Z,97935.00
2023-04-11T08:14:00.728Z,97948.25
2023-04-11T08:16:27.971Z,97931.94
2023-04-11T08:18:55.089Z,97936.31
2023-04-11T08:21:23.948Z,97934.22
2023-04-11T08:23:51.570Z,97935.44
2023-04-11T08:26:19.136Z,97921.53
2023-04-11T08:28:46.261Z,97930.50
2023-04-11T08:31:13.698Z,97934.53
2023-04-11T08:33:41.069Z,97926.03
2023-04-11T08:36:10.678Z,97925.44
2023-04-11T08:38:38.709Z,97924.38
2023-04-11T08:41:06.429Z,97906.28
2023-04-11T08:43:38.059Z,97925.69
2023-04-11T08:46:05.408Z,97910.25
2023-04-11T08:48:33.210Z,97900.44
2023-04-11T08:51:00.448Z,97897.34
2023-04-11T08:53:28.406Z,97887.06
2023-04-11T08:55:55.587Z,97900.72
2023-04-11T08:58:23.452Z,97878.25
2023-04-11T09:00:50.789Z,97876.34
2023-04-11T09:03:18.143Z,97877.22
2023-04-11T09:05:46.851Z,97864.47
2023-04-11T09:08:15.441Z,97858.16
2023-04-11T09:10:45.867Z,97850.91
2023-04-11T09:13:23.622Z,97854.88
2023-04-11T09:16:06.484Z,97832.91
2023-04-11T09:18:42.891Z,97849.09
2023-04-11T09:21:15.121Z,97843.28
2023-04-11T09:23:42.824Z,97841.63
2023-04-11T09:26:11.541Z,97835.69
2023-04-11T09:28:52.794Z,97836.28
2023-04-11T09:31:38.532Z,97837.00
2023-04-11T09:34:05.714Z,97831.94
2023-04-11T09:36:32.981Z,97829.25
2023-04-11T09:39:00.148Z,97829.09
2023-04-11T09:41:32.537Z,97830.22
2023-04-11T09:44:00.845Z,97816.47
2023-04-11T09:46:28.085Z,97843.50
2023-04-11T09:48:56.510Z,97830.78
2023-04-11T09:51:35.792Z,97808.06
2023-04-11T09:54:05.437Z,97808.88
2023-04-11T09:56:35.029Z,97803.31
2023-04-11T09:59:04.106Z,97803.41
2023-04-11T10:01:31.535Z,97804.75
2023-04-11T10:03:58.961Z,97801.13
2023-04-11T10:06:41.240Z,97789.28
2023-04-11T10:09:11.636Z,97798.81
2023-04-11T10:11:45.026Z,97775.00
2023-04-11T10:14:39.932Z,97787.78
2023-04-11T10:17:23.672Z,97778.72
2023-04-11T10:19:57.606Z,97785.34
2023-04-11T10:22:46.792Z,97783.47
2023-04-11T10:25:22.147Z,97772.81
2023-04-11T10:27:53.408Z,97774.53
2023-04-11T10:30:39.483Z,97769.34
2023-04-11T10:33:17.834Z,97774.00
2023-04-11T10:36:06.236Z,97769.63
2023-04-11T10:38:48.928Z,97769.69
2023-04-11T10:41:33.855Z,97754.28
2023-04-11T10:44:19.878Z,97751.78
2023-04-11T10:46:54.452Z,97749.50
2023-04-11T10:49:40.746Z,97751.97
2023-04-11T10:52:24.191Z,97752.00
2023-04-11T10:54:53.462Z,97735.22
2023-04-11T10:57:21.908Z,97736.94
2023-04-11T10:59:51.731Z,97740.75
2023-04-11T11:02:20.323Z,97740.41
2023-04-11T11:04:49.319Z,97728.44
2023-04-11T11:07:17.748Z,97730.28
2023-04-11T11:09:51.578Z,97727.19
2023-04-11T11:12:18.851Z,97734.75
2023-04-11T11:14:47.234Z,97738.72
2023-04-11T11:17:16.093Z,97743.31
2023-04-11T11:19:47.644Z,97734.00
2023-04-11T11:22:29.257Z,97745.22
2023-04-11T11:25:07.923Z,97725.44
2023-04-11T11:27:35.829Z,97735.16
2023-04-11T11:30:12.389Z,97745.34
2023-04-11T11:32:40.914Z,97758.81
2023-04-11T11:35:13.981Z,97750.25
2023-04-11T11:37:42.232Z,97726.03
2023-04-11T11:40:13.502Z,97704.03
2023-04-11T11:42:41.517Z,97729.75
2023-04-11T11:45:34.968Z,97715.38
2023-04-11T11:48:04.026Z,97708.34
2023-04-11T11:50:32.856Z,97700.72
2023-04-11T11:53:15.903Z,97695.03
2023-04-11T11:55:43.774Z,97698.50
2023-04-11T11:58:10.866Z,97670.56
2023-04-11T12:00:42.077Z,97662.84
2023-04-11T12:03:12.973Z,97665.84
2023-04-11T12:05:43.676Z,97652.28
2023-04-11T12:08:11.299Z,97655.28
2023-04-11T12:10:41.004Z,97658.00
2023-04-11T12:13:21.248Z,97658.91
2023-04-11T12:15:54.316Z,97670.53
2023-04-11T12:18:26.568Z,97664.03
2023-04-11T12:20:54.575Z,97683.91
2023-04-11T12:23:22.561Z,97655.94
2023-04-11T12:25:50.320Z,97659.09
2023-04-11T12:28:17.509Z,97680.56
2023-04-11T12:30:45.063Z,97692.63
2023-04-11T12:33:12.219Z,97687.28
2023-04-11T12:35:39.770Z,97677.78
2023-04-11T12:38:08.397Z,97654.72
2023-04-11T12:40:36.207Z,97645.66
2023-04-11T12:43:03.324Z,97632.31
2023-04-11T12:45:31.067Z,97632.59
2023-04-11T12:47:58.200Z,97625.56
2023-04-11T12:50:26.451Z,97631.47
2023-04-11T12:52:55.168Z,97617.25
2023-04-11T12:55:23.845Z,97630.50
2023-04-11T12:57:51.061Z,97596.94
2023-04-11T13:00:19.507Z,97619.41
2023-04-11T13:02:47.112Z,97595.47
2023-04-11T13:05:15.804Z,97600.53
2023-04-11T13:07:45.642Z,97596.28
2023-04-11T13:10:14.585Z,97587.59
2023-04-11T13:12:45.439Z,97601.44
2023-04-11T13:15:15.545Z,97613.69
2023-04-11T13:17:43.265Z,97603.53
2023-04-11T13:20:11.919Z,97591.38
2023-04-11T13:22:42.982Z,97602.69
2023-04-11T13:25:11.318Z,97581.41
2023-04-11T13:27:39.930Z,97604.00
2023-04-11T13:30:10.880Z,97604.03
2023-04-11T13:32:38.141Z,97616.56
2023-04-11T13:35:06.194Z,97624.66
2023-04-11T13:37:33.434Z,97583.69
2023-04-11T13:40:00.878Z,97601.19
2023-04-11T13:42:28.145Z,97605.75
2023-04-11T13:44:55.243Z,97604.53
2023-04-11T13:47:22.424Z,97618.56
2023-04-11T13:49:49.456Z,97600.31
2023-04-11T13:52:16.730Z,97610.19
2023-04-11T13:54:43.805Z,97612.84
2023-04-11T13:57:11.011Z,97610.47
2023-04-11T13:59:38.117Z,97606.09
2023-04-11T14:02:05.242Z,97640.25
2023-04-11T14:04:32.582Z,97636.88
2023-04-11T14:06:59.767Z,97620.94
2023-04-11T14:09:26.976Z,97592.13
2023-04-11T14:11:54.085Z,97586.31
2023-04-11T14:14:21.196Z,97605.06
2023-04-11T14:16:48.646Z,97621.53
2023-04-11T14:19:16.065Z,97616.25
2023-04-11T14:21:43.315Z,97603.63
2023-04-11T14:24:10.573Z,97612.91
2023-04-11T14:26:37.655Z,97596.50
2023-04-11T14:29:05.066Z,97592.28
2023-04-11T14:31:32.396Z,97605.53
2023-04-11T14:33:59.699Z,97595.59
2023-04-11T14:36:28.216Z,97617.53
2023-04-11T14:38:55.706Z,97597.97
2023-04-11T14:41:23.606Z,97592.50
2023-04-11T14:43:50.874Z,97605.97
2023-04-11T14:46:18.230Z,97561.94
2023-04-11T14:48:45.745Z,97562.63
2023-04-11T14:51:12.951Z,97590.94
2023-04-11T14:53:40.005Z,97556.66
2023-04-11T14:56:07.589Z,97560.94
2023-04-11T14:58:34.751Z,97554.91
2023-04-11T15:01:02.452Z,97535.97
2023-04-11T15:03:29.951Z,97545.53
2023-04-11T15:05:57.152Z,97530.91
2023-04-11T15:08:24.326Z,97531.91
2023-04-11T15:10:54.697Z,97547.38
2023-04-11T15:13:22.937Z,97529.84
2023-04-11T15:15:50.287Z,97527.38
2023-04-11T15:18:28.252Z,97550.72
2023-04-11T15:20:57.004Z,97513.38
2023-04-11T15:23:24.415Z,97523.56
2023-04-11T15:26:03.104Z,97534.97
2023-04-11T15:28:36.182Z,97517.13
2023-04-11T15:31:04.984Z,97528.59
2023-04-11T15:33:32.332Z,97544.78
2023-04-11T15:36:00.805Z,97517.50
2023-04-11T15:38:28.873Z,97528.19
2023-04-11T15:40:57.428Z,97514.53
2023-04-11T15:43:24.866Z,97513.28
2023-04-11T15:45:53.916Z,97517.41
2023-04-11T15:48:21.261Z,97525.50
2023-04-11T15:50:48.466Z,97512.94
2023-04-11T15:53:15.649Z,97512.19
2023-04-11T15:55:44.043Z,97508.00
2023-04-11T15:58:11.416Z,97528.91
2023-04-11T16:00:39.814Z,97501.38
2023-04-11T16:03:08.862Z,97513.75
2023-04-11T16:05:40.567Z,97518.28
2023-04-11T16:08:08.224Z,97517.75
2023-04-11T16:10:35.813Z,97508.66
2023-04-11T16:13:03.306Z,97504.31
2023-04-11T16:15:30.776Z,97515.66
2023-04-11T16:17:58.188Z,97518.69
2023-04-11T16:20:25.543Z,97521.22
2023-04-11T16:22:52.799Z,97520.94
2023-04-11T16:25:21.643Z,97529.06
2023-04-11T16:27:49.117Z,97531.97
2023-04-11T16:30:16.878Z,97525.88
2023-04-11T16:32:44.556Z,97517.44
2023-04-11T16:35:12.182Z,97526.06
2023-04-11T16:37:39.265Z,97519.69
2023-04-11T16:40:11.661Z,97513.25
2023-04-11T16:42:39.812Z,97505.88
2023-04-11T16:45:08.164Z,97513.41
2023-04-11T16:47:35.524Z,97518.41
2023-04-11T16:50:02.917Z,97505.34
2023-04-11T16:52:30.246Z,97503.66
2023-04-11T16:54:57.388Z,97502.31
2023-04-11T16:57:25.265Z,97510.72
2023-04-11T16:59:52.481Z,97512.00
2023-04-11T17:02:19.593Z,97520.22
2023-04-11T17:04:46.951Z,97514.66
2023-04-11T17:07:14.380Z,97516.34
2023-04-11T17:09:41.865Z,97521.00
2023-04-11T17:12:08.981Z,97524.78
2023-04-11T17:14:36.854Z,97524.81
2023-04-11T17:17:04.309Z,97522.72
2023-04-11T17:19:31.894Z,97524.53
2023-04-11T17:21:59.039Z,97523.69
2023-04-11T17:24:26.194Z,97517.19
2023-04-11T17:26:53.802Z,97514.47
2023-04-11T17:29:20.934Z,97509.25
2023-04-11T17:31:48.577Z,97509.47
2023-04-11T17:34:15.764Z,97520.22
2023-04-11T17:36:43.334Z,97511.75
2023-04-11T17:39:18.290Z,97513.91
2023-04-11T17:41:46.291Z,97512.97
2023-04-11T17:44:14.018Z,97521.00
2023-04-11T17:46:42.071Z,97515.16
2023-04-11T17:49:09.155Z,97516.41
2023-04-11T17:51:43.071Z,97514.53
2023-04-11T17:54:17.100Z,97513.06
2023-04-11T17:56:44.389Z,97513.91
2023-04-11T17:59:12.057Z,97516.88
2023-04-11T18:01:39.504Z,97518.53
2023-04-11T18:04:09.879Z,97507.56
2023-04-11T18:06:37.082Z,97509.28
2023-04-11T18:09:06.074Z,97519.78
